Prior Lake, MN (55372)

5:12 PM CST on February 07, 2016 (GMT -0600)
ARS Carriage Hills | | Change Station
CLOSE
Current Station
Personal Weather Station
Location: Prior Lake, MN
Elevation: 975 ft
Nearby Weather Stations
Active Advisory: Winter Weather Advisory Active Notice: Public Information Statement

Elev 975 ft 44.74 °N, 93.44 °W | Updated 5 seconds ago

Overcast
Overcast
35.0 °F
Feels Like 29 °F
N
6.9
Wind Variable Wind from WNW
Gusts 10.5 mph

Today
High -- | Low -- °F
--% Chance of Precip.
Yesterday
High -- | Low -- °F
Precip. -- in
Pressure 29.65 in
Visibility 4.0 miles
Clouds Few 1300 ft
Few 1800 ft
Overcast 3000 ft
Windchill 29 °F
Dew Point 31 °F
Humidity 85%
Rainfall 0.00 in
Snow Depth Not available.
7:25 AM 5:30 PM
Waning Crescent, 1% visible
SPECI KFCM 072308Z 31015G29KT 4SM -SN FEW013 FEW018 OVC030 02/M03 A2965 RMK AO2 PK WND 32029/2301 WSHFT 2252 RAB2256E08SNB08 P0000 T00171028
Pressure 29.65 in
Visibility 4.0 miles
Clouds Few 1300 ft
Few 1800 ft
Overcast 3000 ft
Windchill 29 °F
Dew Point 31 °F
Humidity 85%
Rainfall 0.00 in
Snow Depth Not available.
7:25 AM 5:30 PM
Waning Crescent, 1% visible
SPECI KFCM 072308Z 31015G29KT 4SM -SN FEW013 FEW018 OVC030 02/M03 A2965 RMK AO2 PK WND 32029/2301 WSHFT 2252 RAB2256E08SNB08 P0000 T00171028

10-Day Weather Forecast

Almanac

Astronomy

Feb. 07, 2016 Rise Set
Actual Time
Civil Twilight
Nautical Twilight
Astronomical Twilight
Moon
Length of Visible Light
Length of Day
Tomorrow will be .
, % of the Moon is Illuminated

Today's Extremes

State Highs State Lows

Community

WunderPhotos

Upload Photos

1,891,325 photos uploaded!

WunderBlog® & News

Nearby

Air Quality

  Air Quality AQ Index Pollutant
Not available.

Snow Depth

Station Depth Elevation

Earthquake Activity

City Distance Mag. Time & Date
Minimum magnitude displayed is 2.5.

Coastal Water Temperatures

Place Temperature

Stations

Nearby Weather Stations

Station Location Temp. Windchill Dew Point Humidity Wind Precip. Elev Updated Type
                   

Watches & Warnings

Winter Weather Advisory
Issued: 12:59 PM CST Feb. 7, 2016 – National Weather Service

... Winter Weather Advisory remains in effect from 7 PM this
evening to noon CST Monday...

A Winter Weather Advisory remains in effect from 7 PM this
evening to noon CST Monday.

* Expect snow to develop around 7 PM and then diminish around
noon Monday.

* Total snow accumulations of up to 1 inch are expected.

* Winds gusting as high as 40 mph will cause widespread blowing
and drifting snow.

* Plan on slippery Road conditions.

Precautionary/preparedness actions...

A Winter Weather Advisory for snow means periods of snow will
cause primarily travel difficulties. Be prepared for snow covered
roads and limited visibilities... and use caution while driving.
The latest Road conditions for the state you are calling from can
be obtained by calling 5 1 1.


Jlt